Time;durP1;ratioP1;P1;durP2;ratioP2;P2;SDS_P1;SDS_P2;PMS_P1;PMS_P2;Temp;Humidity;BMP_temperature;BMP_pressure;BME280_temperature;BME280_humidity;BME280_pressure;Samples;Min_cycle;Max_cycle;Signal;HPM_P1;HPM_P2
2020/12/07 00:00:42;;;;;;;5.60;4.80;;;;;;;4.28;71.53;94748.19;5074537;28;20183;-69
2020/12/07 00:03:08;;;;;;;7.23;4.90;;;;;;;4.35;71.22;94754.25;5073863;28;20716;-68
2020/12/07 00:05:33;;;;;;;5.40;4.90;;;;;;;4.57;70.71;94747.47;5058945;28;20433;-68
2020/12/07 00:08:01;;;;;;;5.73;5.13;;;;;;;3.26;75.80;94749.81;5070365;28;20182;-70
2020/12/07 00:10:26;;;;;;;5.93;5.33;;;;;;;3.95;73.54;94743.19;5072081;28;20190;-69
2020/12/07 00:12:52;;;;;;;5.87;4.67;;;;;;;4.29;72.29;94740.22;5073913;28;20451;-70
2020/12/07 00:15:17;;;;;;;6.70;5.43;;;;;;;3.59;74.88;94749.69;5071176;28;20171;-67
2020/12/07 00:17:43;;;;;;;6.13;5.33;;;;;;;3.77;74.27;94762.41;5067330;28;20291;-70
2020/12/07 00:20:09;;;;;;;5.90;4.90;;;;;;;4.23;72.89;94748.66;5059173;28;20221;-68
2020/12/07 00:22:35;;;;;;;6.00;5.40;;;;;;;4.19;72.79;94751.78;5075304;28;20171;-69
2020/12/07 00:25:02;;;;;;;5.97;5.07;;;;;;;4.27;72.14;94731.00;5074299;28;20424;-67
2020/12/07 00:27:30;;;;;;;6.77;5.10;;;;;;;4.15;73.04;94728.81;5074767;28;20496;-69
2020/12/07 00:29:56;;;;;;;5.70;4.47;;;;;;;4.43;71.62;94733.44;5066201;28;20793;-68
2020/12/07 00:32:23;;;;;;;6.37;4.60;;;;;;;4.41;71.83;94732.00;5073958;28;20440;-67
2020/12/07 00:34:49;;;;;;;4.80;4.23;;;;;;;4.30;71.77;94738.41;5074426;28;20512;-67
2020/12/07 00:37:15;;;;;;;5.87;4.63;;;;;;;4.48;71.25;94734.72;5072932;28;20436;-67
2020/12/07 00:39:41;;;;;;;6.17;4.43;;;;;;;4.48;70.95;94737.31;5072840;28;20448;-68
2020/12/07 00:42:10;;;;;;;4.50;3.90;;;;;;;4.69;70.25;94749.63;5072359;28;20405;-68
2020/12/07 00:44:37;;;;;;;5.60;4.10;;;;;;;4.75;70.30;94744.53;5071731;28;20224;-68
2020/12/07 00:47:03;;;;;;;4.07;3.67;;;;;;;4.85;70.52;94746.06;5061676;28;20490;-67
2020/12/07 00:49:29;;;;;;;5.70;3.83;;;;;;;4.70;70.22;94739.06;5073303;28;20433;-69
2020/12/07 00:51:55;;;;;;;5.17;3.43;;;;;;;4.85;70.07;94739.06;5073206;28;20452;-69
2020/12/07 00:54:22;;;;;;;4.60;4.10;;;;;;;4.89;69.59;94734.38;5073402;28;20191;-67
2020/12/07 00:56:58;;;;;;;4.83;3.70;;;;;;;4.91;69.41;94728.00;5071798;28;20190;-69
2020/12/07 00:59:24;;;;;;;3.43;3.13;;;;;;;4.63;69.58;94732.16;5071719;28;20447;-69
2020/12/07 01:01:51;;;;;;;4.70;3.77;;;;;;;4.73;69.77;94743.09;5072023;28;20413;-68
2020/12/07 01:04:17;;;;;;;4.13;3.60;;;;;;;4.88;69.34;94761.28;5072825;28;20420;-68
2020/12/07 01:06:45;;;;;;;3.50;3.20;;;;;;;4.92;69.50;94765.94;5073322;28;20425;-68
2020/12/07 01:09:13;;;;;;;4.20;3.50;;;;;;;4.98;69.34;94764.44;5052875;28;20574;-69
2020/12/07 01:11:42;;;;;;;3.20;2.90;;;;;;;4.82;69.18;94764.59;5073156;28;20475;-69
2020/12/07 01:14:10;;;;;;;3.80;3.33;;;;;;;4.94;69.26;94768.34;5071166;28;20803;-68
2020/12/07 01:16:36;;;;;;;3.70;3.40;;;;;;;4.75;69.36;94769.66;5061066;28;20424;-69
2020/12/07 01:19:04;;;;;;;3.77;3.23;;;;;;;4.79;69.95;94770.16;5072585;28;20440;-71
2020/12/07 01:21:33;;;;;;;4.80;3.53;;;;;;;4.86;69.88;94766.66;5055133;28;20248;-69
2020/12/07 01:24:00;;;;;;;3.47;3.17;;;;;;;4.95;68.86;94759.59;5072457;28;20417;-69
2020/12/07 01:26:26;;;;;;;3.80;3.33;;;;;;;4.97;69.13;94754.25;5076742;28;20551;-69
2020/12/07 01:28:52;;;;;;;6.83;3.77;;;;;;;4.78;68.97;94752.97;5075058;28;20947;-69
2020/12/07 01:31:18;;;;;;;3.70;3.40;;;;;;;4.83;69.79;94755.81;5075231;28;20257;-68
2020/12/07 01:33:44;;;;;;;4.20;3.73;;;;;;;4.86;69.21;94756.25;5071486;28;20917;-68
2020/12/07 01:36:11;;;;;;;3.60;3.30;;;;;;;4.92;69.25;94759.94;5072404;28;20174;-69
2020/12/07 01:38:36;;;;;;;3.83;3.40;;;;;;;4.87;69.23;94757.09;5070006;28;20456;-70
2020/12/07 01:41:02;;;;;;;3.60;3.30;;;;;;;4.90;68.87;94754.16;5071639;28;20412;-69
2020/12/07 01:43:28;;;;;;;5.27;3.30;;;;;;;4.88;69.28;94753.50;5072805;28;20581;-69
2020/12/07 01:45:54;;;;;;;3.97;3.57;;;;;;;4.89;68.83;94760.31;5061365;28;20290;-68
2020/12/07 01:48:19;;;;;;;4.63;3.80;;;;;;;4.83;69.10;94761.81;5071923;28;20617;-69
2020/12/07 01:50:45;;;;;;;4.30;3.60;;;;;;;4.91;68.90;94750.56;5071799;28;20420;-68
2020/12/07 01:53:11;;;;;;;4.33;3.93;;;;;;;4.99;68.47;94749.66;5070138;28;20176;-68
2020/12/07 01:55:41;;;;;;;4.87;3.97;;;;;;;4.93;68.55;94743.38;5054155;28;20217;-68
2020/12/07 01:58:06;;;;;;;6.43;4.97;;;;;;;4.80;69.24;94746.59;5036265;28;20413;-68
2020/12/07 02:00:32;;;;;;;4.90;4.30;;;;;;;4.59;70.33;94758.47;5072909;28;20481;-68
2020/12/07 02:02:58;;;;;;;12.10;4.20;;;;;;;4.68;70.10;94759.19;5072078;28;20178;-69
2020/12/07 02:05:24;;;;;;;4.80;4.30;;;;;;;4.70;69.89;94767.59;5071888;28;20182;-69
2020/12/07 02:08:08;;;;;;;4.83;4.33;;;;;;;4.72;69.09;94776.03;5072032;28;20428;-69
2020/12/07 02:10:34;;;;;;;6.20;4.70;;;;;;;4.76;69.54;94785.06;5062418;28;20449;-68
2020/12/07 02:13:00;;;;;;;5.17;4.50;;;;;;;4.69;69.43;94786.75;5068891;28;20449;-68
2020/12/07 02:15:25;;;;;;;4.87;4.47;;;;;;;4.58;70.32;94790.56;5057986;28;20183;-69
2020/12/07 02:17:51;;;;;;;6.07;5.03;;;;;;;4.64;69.87;94799.44;5068249;28;20178;-68
2020/12/07 02:20:16;;;;;;;5.50;4.70;;;;;;;4.75;69.89;94796.44;5072718;28;20255;-68
2020/12/07 02:22:42;;;;;;;6.60;5.20;;;;;;;4.69;70.07;94804.91;5071248;28;20214;-69
2020/12/07 02:25:08;;;;;;;6.30;4.90;;;;;;;4.45;70.51;94811.88;5064313;28;20267;-69
2020/12/07 02:27:34;;;;;;;5.63;4.63;;;;;;;4.52;70.25;94830.16;5070672;28;20429;-68
2020/12/07 02:29:59;;;;;;;6.70;5.37;;;;;;;4.60;70.63;94819.72;5071286;28;20259;-70
2020/12/07 02:32:25;;;;;;;6.10;4.87;;;;;;;4.64;70.06;94824.56;5071379;28;20210;-70
2020/12/07 02:34:51;;;;;;;5.60;5.03;;;;;;;4.83;69.93;94812.91;5072750;28;20286;-67
2020/12/07 02:37:16;;;;;;;5.37;4.87;;;;;;;4.78;70.21;94820.44;5075449;28;20187;-69
2020/12/07 02:39:42;;;;;;;5.63;4.87;;;;;;;4.50;70.33;94828.72;5075976;28;20206;-69
2020/12/07 02:42:08;;;;;;;6.50;4.83;;;;;;;4.71;70.15;94835.88;5076026;28;20221;-68
2020/12/07 02:44:33;;;;;;;6.30;4.93;;;;;;;4.78;70.04;94841.19;5068729;28;20191;-70
2020/12/07 02:46:59;;;;;;;5.47;4.90;;;;;;;4.65;70.26;94841.75;5062902;28;20649;-70
2020/12/07 02:49:27;;;;;;;6.37;5.20;;;;;;;4.81;69.49;94848.59;5074510;28;20205;-68
2020/12/07 02:51:52;;;;;;;5.30;4.47;;;;;;;4.56;70.65;94853.97;5072828;28;20260;-68
2020/12/07 02:54:18;;;;;;;5.83;5.13;;;;;;;4.42;71.37;94845.94;5075707;28;20425;-69
2020/12/07 02:56:44;;;;;;;4.90;4.40;;;;;;;4.57;70.48;94847.81;5073539;28;20450;-68
2020/12/07 02:59:10;;;;;;;7.90;4.00;;;;;;;4.62;70.71;94850.69;5075856;28;20449;-69
2020/12/07 03:01:36;;;;;;;5.73;4.27;;;;;;;4.46;71.24;94854.22;5075322;28;20773;-69
2020/12/07 03:04:02;;;;;;;4.87;4.37;;;;;;;4.50;70.88;94858.06;5066898;28;20432;-68
2020/12/07 03:06:27;;;;;;;4.50;4.10;;;;;;;4.53;70.56;94859.53;5074159;28;20186;-67
2020/12/07 03:08:54;;;;;;;5.10;4.60;;;;;;;4.59;70.80;94869.19;5071290;28;20226;-69
2020/12/07 03:11:23;;;;;;;4.50;4.10;;;;;;;4.69;69.97;94863.78;5075442;28;20198;-69
2020/12/07 03:13:49;;;;;;;4.60;4.20;;;;;;;4.65;70.39;94873.72;5075885;28;20428;-69
2020/12/07 03:16:15;;;;;;;4.83;4.33;;;;;;;4.58;70.84;94877.97;5064532;28;20420;-67
2020/12/07 03:18:40;;;;;;;5.07;4.47;;;;;;;4.66;70.33;94877.09;5075560;28;20444;-68
2020/12/07 03:21:06;;;;;;;4.97;4.50;;;;;;;4.60;70.33;94874.19;5073727;28;20572;-67
2020/12/07 03:23:32;;;;;;;4.33;3.97;;;;;;;4.70;70.18;94879.16;5073875;28;20178;-68
2020/12/07 03:25:58;;;;;;;4.83;4.33;;;;;;;4.78;70.20;94882.72;5075772;28;20182;-68
2020/12/07 03:28:23;;;;;;;4.80;4.33;;;;;;;4.78;69.93;94875.72;5074228;28;20222;-68
2020/12/07 03:30:49;;;;;;;5.10;4.57;;;;;;;4.70;69.82;94876.56;5074337;28;20273;-68
2020/12/07 03:33:14;;;;;;;5.53;4.63;;;;;;;4.60;69.72;94881.19;5075195;28;20181;-68
2020/12/07 03:35:40;;;;;;;5.03;4.50;;;;;;;4.56;70.65;94883.31;5072385;28;20186;-69
2020/12/07 03:38:06;;;;;;;5.10;4.47;;;;;;;4.45;70.53;94884.50;5075041;28;20175;-69
2020/12/07 03:40:33;;;;;;;5.60;4.70;;;;;;;4.59;70.17;94882.16;5074196;28;20214;-69
2020/12/07 03:42:59;;;;;;;5.30;4.60;;;;;;;4.56;70.64;94885.91;5074382;28;20266;-69
2020/12/07 03:45:26;;;;;;;5.63;4.43;;;;;;;4.61;70.70;94882.81;5068696;28;20426;-69
2020/12/07 03:47:51;;;;;;;5.13;4.50;;;;;;;4.45;70.38;94879.31;5068273;28;20429;-69
2020/12/07 03:50:17;;;;;;;5.83;4.80;;;;;;;4.40;70.87;94881.63;5074288;28;20449;-69
2020/12/07 03:52:43;;;;;;;7.57;5.23;;;;;;;4.30;70.88;94883.63;5074985;28;20700;-70
2020/12/07 03:55:08;;;;;;;5.23;4.73;;;;;;;4.59;70.29;94882.16;5054198;28;20187;-68
2020/12/07 03:57:34;;;;;;;8.83;4.63;;;;;;;4.43;71.25;94875.28;5064851;28;20186;-68
2020/12/07 04:00:00;;;;;;;5.70;5.07;;;;;;;4.48;71.40;94870.38;5074137;28;20198;-69
2020/12/07 04:02:27;;;;;;;6.70;5.13;;;;;;;4.60;70.66;94870.81;5073837;28;20511;-69
2020/12/07 04:05:03;;;;;;;5.20;4.60;;;;;;;4.32;71.80;94860.91;5055135;28;20416;-69
2020/12/07 04:07:28;;;;;;;5.63;4.60;;;;;;;4.50;70.85;94868.44;5073077;28;20420;-69
2020/12/07 04:09:54;;;;;;;6.20;5.30;;;;;;;4.55;70.97;94880.88;5070657;28;20536;-67
2020/12/07 04:12:20;;;;;;;6.30;4.37;;;;;;;4.65;70.31;94889.28;5074107;28;20198;-70
2020/12/07 04:14:45;;;;;;;5.43;4.20;;;;;;;4.62;70.69;94889.63;5074792;28;20213;-67
2020/12/07 04:17:11;;;;;;;5.37;4.30;;;;;;;4.64;70.97;94892.03;5072902;28;20174;-68
2020/12/07 04:19:37;;;;;;;5.20;4.33;;;;;;;4.71;70.48;94898.94;5074084;28;20576;-68
2020/12/07 04:22:02;;;;;;;4.67;4.17;;;;;;;4.73;70.23;94904.78;5074236;28;20257;-69
2020/12/07 04:24:28;;;;;;;5.10;4.37;;;;;;;4.82;70.17;94894.34;5072683;28;20182;-69
2020/12/07 04:26:53;;;;;;;3.70;3.40;;;;;;;4.88;70.14;94906.63;5072632;28;20210;-66
2020/12/07 04:29:19;;;;;;;5.37;4.27;;;;;;;4.89;70.05;94903.06;5073636;28;20198;-69
2020/12/07 04:31:45;;;;;;;6.40;3.87;;;;;;;4.90;69.68;94907.28;5073122;28;20301;-69
2020/12/07 04:34:10;;;;;;;4.57;3.37;;;;;;;4.97;69.58;94912.59;5073388;28;20182;-68
2020/12/07 04:36:36;;;;;;;4.50;4.10;;;;;;;5.03;69.46;94912.69;5066046;28;20846;-69
2020/12/07 04:39:02;;;;;;;6.00;4.40;;;;;;;4.88;69.67;94915.22;5072472;28;20573;-69
2020/12/07 04:41:28;;;;;;;4.47;4.00;;;;;;;4.97;69.29;94908.19;5079314;28;20261;-69
2020/12/07 04:43:54;;;;;;;5.00;4.50;;;;;;;4.93;70.02;94912.09;5080730;28;20458;-68
2020/12/07 04:46:20;;;;;;;7.13;4.90;;;;;;;4.75;70.11;94915.81;5074788;28;20263;-69
2020/12/07 04:48:51;;;;;;;6.10;4.43;;;;;;;4.93;69.58;94922.47;5073903;28;20472;-68
2020/12/07 04:51:17;;;;;;;5.50;4.40;;;;;;;4.96;69.43;94923.94;5071641;28;20506;-68
2020/12/07 04:53:43;;;;;;;5.77;4.83;;;;;;;4.90;69.66;94922.84;5022555;28;20432;-69
2020/12/07 04:56:10;;;;;;;5.17;4.63;;;;;;;4.87;69.65;94929.19;5055082;28;20287;-68
2020/12/07 04:58:36;;;;;;;4.73;3.70;;;;;;;4.91;69.82;94920.06;5071836;28;20456;-68
2020/12/07 05:01:02;;;;;;;6.23;4.70;;;;;;;4.96;70.22;94926.53;5071738;28;20182;-69
2020/12/07 05:03:28;;;;;;;4.93;4.43;;;;;;;4.78;70.79;94921.63;5072659;28;20912;-69
2020/12/07 05:05:53;;;;;;;14.83;5.03;;;;;;;4.94;70.08;94918.91;5067011;28;20493;-69
2020/12/07 05:08:19;;;;;;;5.83;5.10;;;;;;;5.00;70.00;94915.63;5072385;28;20637;-69
2020/12/07 05:10:47;;;;;;;5.30;4.60;;;;;;;5.08;69.39;94919.97;5069115;28;20552;-68
2020/12/07 05:13:32;;;;;;;5.20;4.70;;;;;;;5.07;69.40;94907.97;5072731;28;20205;-69
2020/12/07 05:15:58;;;;;;;5.27;4.73;;;;;;;4.97;70.49;94915.97;5072258;28;20519;-68
2020/12/07 05:18:24;;;;;;;5.07;4.57;;;;;;;4.95;69.85;94917.13;5072463;28;20424;-69
2020/12/07 05:20:49;;;;;;;9.13;5.30;;;;;;;4.96;70.32;94916.16;5072076;28;20645;-69
2020/12/07 05:23:17;;;;;;;5.67;4.80;;;;;;;5.05;69.86;94918.50;5072140;28;20706;-69
2020/12/07 05:25:48;;;;;;;5.50;4.70;;;;;;;4.68;71.02;94911.47;5072836;28;20205;-69
2020/12/07 05:28:22;;;;;;;9.30;5.00;;;;;;;4.99;70.44;94908.00;5062413;28;20459;-68
2020/12/07 05:30:50;;;;;;;6.57;5.00;;;;;;;5.12;69.83;94913.41;5070982;28;20456;-67
2020/12/07 05:33:17;;;;;;;6.37;5.03;;;;;;;5.19;69.24;94910.94;5071338;28;20452;-69
2020/12/07 05:35:53;;;;;;;6.83;5.20;;;;;;;4.89;69.98;94916.03;5065984;28;20950;-69
2020/12/07 05:38:19;;;;;;;6.33;5.20;;;;;;;5.07;69.84;94913.94;5058057;28;20420;-68
2020/12/07 05:40:46;;;;;;;6.80;5.10;;;;;;;5.15;69.28;94918.28;5071057;28;20427;-66
2020/12/07 05:43:12;;;;;;;6.17;4.90;;;;;;;5.15;69.37;94918.28;5072812;28;20912;-69
2020/12/07 05:45:41;;;;;;;5.90;5.30;;;;;;;4.55;70.93;94924.97;5072469;28;21046;-70
2020/12/07 05:48:07;;;;;;;5.80;4.70;;;;;;;4.74;71.34;94918.56;5071011;28;21145;-67
2020/12/07 05:50:38;;;;;;;6.70;5.20;;;;;;;4.91;70.29;94927.06;5071622;28;20482;-70
2020/12/07 05:53:05;;;;;;;6.70;5.27;;;;;;;4.99;69.72;94936.56;5071841;28;20206;-69
2020/12/07 05:55:31;;;;;;;8.50;5.50;;;;;;;5.00;70.26;94933.81;5072137;28;20435;-69
2020/12/07 05:57:57;;;;;;;8.47;5.87;;;;;;;4.56;71.08;94937.81;5071594;28;20526;-70
2020/12/07 06:00:24;;;;;;;10.90;6.40;;;;;;;4.73;71.24;94937.69;5072186;28;20491;-68
2020/12/07 06:02:54;;;;;;;6.50;5.50;;;;;;;4.79;70.23;94941.41;5072495;28;20186;-70
2020/12/07 06:05:23;;;;;;;8.87;6.63;;;;;;;4.35;72.20;94946.16;5062769;28;20421;-69
2020/12/07 06:08:14;;;;;;;7.37;6.10;;;;;;;4.92;70.82;94944.22;5072135;28;20423;-69
2020/12/07 06:10:46;;;;;;;7.80;6.60;;;;;;;5.11;69.68;94939.56;5071693;28;20455;-69
2020/12/07 06:13:19;;;;;;;10.47;5.40;;;;;;;4.97;69.51;94948.94;5059208;28;20854;-68
2020/12/07 06:15:47;;;;;;;8.03;6.10;;;;;;;5.04;69.92;94948.03;5068555;28;20444;-69
2020/12/07 06:18:35;;;;;;;9.63;6.20;;;;;;;5.06;69.54;94948.69;5076894;28;20431;-69
2020/12/07 06:21:02;;;;;;;8.60;6.77;;;;;;;5.05;69.24;94949.66;5075163;28;20437;-69
2020/12/07 06:23:36;;;;;;;6.57;5.47;;;;;;;5.12;69.53;94946.38;5076094;28;20435;-68
2020/12/07 06:26:04;;;;;;;6.40;5.40;;;;;;;5.10;69.01;94945.75;5076378;28;20966;-67
2020/12/07 06:28:37;;;;;;;12.03;5.57;;;;;;;5.04;69.09;94949.84;5074609;28;20459;-67
2020/12/07 06:31:08;;;;;;;9.50;6.20;;;;;;;5.02;68.96;94962.19;5075241;28;20425;-69
2020/12/07 06:33:39;;;;;;;8.37;6.30;;;;;;;4.95;69.33;94966.47;5074198;28;20514;-70
2020/12/07 06:36:05;;;;;;;7.50;5.50;;;;;;;5.00;68.79;94975.34;5074637;28;20507;-69
2020/12/07 06:38:43;;;;;;;8.70;5.60;;;;;;;5.01;68.78;94979.56;5075397;28;20831;-69
2020/12/07 06:41:09;;;;;;;9.30;6.20;;;;;;;5.00;68.87;94979.72;5059195;28;20227;-68
2020/12/07 06:43:34;;;;;;;8.37;5.60;;;;;;;4.88;69.44;94993.09;5075466;28;20899;-69
2020/12/07 06:46:00;;;;;;;16.03;5.50;;;;;;;4.80;69.87;94994.91;5071312;28;20278;-67
2020/12/07 06:48:26;;;;;;;7.83;6.10;;;;;;;4.75;70.01;94993.66;5074861;28;20197;-69
2020/12/07 06:50:53;;;;;;;8.33;6.20;;;;;;;4.76;69.73;94995.28;5073646;28;20439;-68
2020/12/07 06:55:55;;;;;;;12.10;6.30;;;;;;;4.74;69.66;94986.84;5073285;28;20519;-68
2020/12/07 06:58:37;;;;;;;11.07;6.70;;;;;;;4.79;69.75;94988.13;5075469;28;20833;-67
2020/12/07 07:01:20;;;;;;;10.10;7.03;;;;;;;4.63;70.80;94995.00;5075355;28;20605;-69
2020/12/07 07:03:50;;;;;;;10.10;6.93;;;;;;;4.75;69.78;94991.06;5074312;28;20421;-68
2020/12/07 07:06:23;;;;;;;9.80;7.40;;;;;;;4.81;69.82;94999.13;5074001;28;20420;-68
2020/12/07 07:08:49;;;;;;;11.03;7.03;;;;;;;4.85;69.97;95003.81;5068539;28;20973;-69
2020/12/07 07:11:15;;;;;;;9.60;7.47;;;;;;;4.81;69.87;95017.28;5067433;28;20954;-69
2020/12/07 07:13:50;;;;;;;14.67;7.10;;;;;;;4.91;69.84;95020.50;5072925;28;20432;-69
2020/12/07 07:16:17;;;;;;;9.70;6.70;;;;;;;4.96;69.98;95031.16;5057359;28;20450;-68
2020/12/07 07:18:43;;;;;;;11.40;8.17;;;;;;;4.89;69.79;95028.44;5074881;28;20449;-67
2020/12/07 07:21:09;;;;;;;11.13;7.73;;;;;;;4.74;70.93;95022.34;5057571;28;20421;-68
2020/12/07 07:23:42;;;;;;;13.13;8.53;;;;;;;4.97;69.59;95025.00;5073992;28;20433;-68
2020/12/07 07:26:19;;;;;;;12.60;8.40;;;;;;;4.98;69.88;95018.84;5076960;28;20614;-68
2020/12/07 07:28:46;;;;;;;11.53;8.37;;;;;;;5.10;70.15;95023.63;5068551;28;20535;-68
2020/12/07 07:31:12;;;;;;;11.73;8.27;;;;;;;4.94;70.18;95017.53;5070326;28;21057;-69
2020/12/07 07:33:37;;;;;;;10.90;8.70;;;;;;;5.15;69.34;95023.94;5070931;28;20432;-69
2020/12/07 07:36:03;;;;;;;12.70;8.60;;;;;;;5.20;69.29;95024.22;5074739;28;20429;-69
2020/12/07 07:38:35;;;;;;;9.47;7.73;;;;;;;5.12;69.75;95030.25;5074178;28;20278;-68
2020/12/07 07:41:01;;;;;;;14.13;9.03;;;;;;;5.13;69.51;95020.69;5074497;28;20226;-66
2020/12/07 07:43:27;;;;;;;11.60;7.97;;;;;;;5.22;68.79;95024.84;5074182;28;20428;-69
2020/12/07 07:45:59;;;;;;;9.10;7.50;;;;;;;5.27;69.06;95038.16;5054718;28;20217;-68
2020/12/07 08:15:53;;;;;;;10.77;8.00;;;;;;;5.41;68.89;95056.56;5069882;28;20476;-68
2020/12/07 08:18:31;;;;;;;11.80;7.40;;;;;;;5.55;68.48;95055.78;5072395;28;20413;-68
2020/12/07 08:21:02;;;;;;;8.43;7.13;;;;;;;5.51;68.10;95059.75;5073914;28;20927;-70
2020/12/07 08:23:32;;;;;;;8.50;7.30;;;;;;;5.66;68.38;95062.38;5072475;28;20432;-68
2020/12/07 08:25:59;;;;;;;8.30;6.60;;;;;;;5.74;67.89;95069.31;5073800;28;20429;-69
2020/12/07 08:28:39;;;;;;;9.70;6.50;;;;;;;5.53;68.07;95073.38;5073388;28;20425;-69
2020/12/07 08:31:10;;;;;;;7.70;6.20;;;;;;;5.59;67.68;95067.47;5074088;28;20432;-68
2020/12/07 08:33:38;;;;;;;8.30;6.47;;;;;;;5.61;67.96;95064.69;5074037;28;20472;-68
2020/12/07 08:36:06;;;;;;;8.97;6.00;;;;;;;5.74;67.64;95075.31;5071125;28;20484;-69
2020/12/07 08:38:34;;;;;;;8.57;6.20;;;;;;;5.83;67.80;95068.25;5050559;28;20448;-69
2020/12/07 08:41:25;;;;;;;7.77;5.87;;;;;;;5.88;67.63;95076.34;5071013;28;20440;-68
2020/12/07 08:44:00;;;;;;;8.20;6.43;;;;;;;5.94;67.61;95080.84;5073136;28;20780;-69
2020/12/07 08:46:28;;;;;;;8.63;6.63;;;;;;;5.77;68.10;95079.38;5069849;28;20459;-70
2020/12/07 08:48:55;;;;;;;8.70;6.60;;;;;;;5.92;67.87;95076.81;5072944;28;20522;-68
2020/12/07 08:51:23;;;;;;;9.83;6.50;;;;;;;5.90;67.74;95083.97;5073377;28;20895;-69
2020/12/07 08:53:49;;;;;;;7.77;5.70;;;;;;;5.91;67.61;95085.59;5070370;28;20420;-70
2020/12/07 08:56:15;;;;;;;8.20;5.53;;;;;;;6.12;69.19;95077.16;5040282;28;20448;-65
2020/12/07 08:58:41;;;;;;;6.77;4.90;;;;;;;8.28;68.73;95078.59;5050662;28;20804;-65
2020/12/07 09:01:08;;;;;;;6.37;4.23;;;;;;;10.45;60.79;95079.91;5063629;28;20424;-65
2020/12/07 09:03:35;;;;;;;5.10;3.90;;;;;;;11.18;56.83;95078.09;5064516;28;20428;-64
2020/12/07 09:06:04;;;;;;;4.10;3.43;;;;;;;12.11;51.79;95079.41;5071212;28;20433;-64
2020/12/07 09:08:30;;;;;;;2.80;2.57;;;;;;;13.45;49.30;95092.25;5070398;28;20494;-64
2020/12/07 09:10:56;;;;;;;3.43;3.13;;;;;;;13.33;48.39;95098.25;5067183;28;20965;-65
2020/12/07 09:13:25;;;;;;;4.33;3.93;;;;;;;12.81;47.71;95101.22;5064061;28;20421;-64
2020/12/07 09:15:52;;;;;;;3.67;2.90;;;;;;;13.68;47.76;95096.81;5063188;28;20207;-64
2020/12/07 09:18:19;;;;;;;4.33;3.83;;;;;;;13.25;48.72;95098.53;5071367;28;20507;-65
2020/12/07 09:20:45;;;;;;;4.33;3.60;;;;;;;12.86;48.07;95096.13;5071224;28;20783;-65
2020/12/07 09:23:10;;;;;;;6.53;5.40;;;;;;;12.14;46.82;95102.63;5072859;28;20507;-68
2020/12/07 09:25:36;;;;;;;12.00;5.20;;;;;;;10.83;50.19;95108.06;5064912;28;20526;-68
2020/12/07 09:28:03;;;;;;;5.10;3.80;;;;;;;10.06;53.06;95115.53;5073030;28;20187;-70
2020/12/07 09:30:28;;;;;;;7.37;5.67;;;;;;;8.64;57.00;95111.59;5074748;28;20626;-68
2020/12/07 09:32:54;;;;;;;4.27;3.80;;;;;;;8.28;58.63;95117.72;5073590;28;20463;-68
2020/12/07 09:35:20;;;;;;;5.40;4.10;;;;;;;8.07;59.44;95116.75;5070438;28;20244;-66
2020/12/07 09:37:46;;;;;;;4.83;4.33;;;;;;;7.89;60.84;95119.00;5054119;28;20197;-67
2020/12/07 09:40:11;;;;;;;6.40;4.80;;;;;;;7.97;60.26;95108.44;5074706;28;20209;-68
2020/12/07 09:42:39;;;;;;;6.50;5.10;;;;;;;7.80;61.22;95115.69;5075469;28;20429;-67
2020/12/07 09:45:09;;;;;;;7.30;4.87;;;;;;;7.44;61.96;95121.75;5075199;28;20186;-67
2020/12/07 09:47:35;;;;;;;5.30;4.80;;;;;;;7.46;61.96;95131.00;5071333;28;20887;-67
2020/12/07 09:50:03;;;;;;;5.03;4.40;;;;;;;7.41;62.59;95135.97;5073965;28;20455;-67
2020/12/07 09:52:28;;;;;;;6.80;4.60;;;;;;;7.62;62.19;95135.19;5073963;28;20256;-68
2020/12/07 09:54:54;;;;;;;5.50;5.00;;;;;;;7.44;63.21;95127.75;5073731;28;20424;-68
2020/12/07 09:57:20;;;;;;;5.80;4.70;;;;;;;7.65;62.13;95118.38;5072298;28;20182;-68
2020/12/07 09:59:48;;;;;;;5.07;4.57;;;;;;;7.56;62.95;95124.69;5072079;28;20198;-67
2020/12/07 10:02:14;;;;;;;6.10;4.70;;;;;;;7.65;62.02;95120.97;5055832;28;20225;-66
2020/12/07 10:04:41;;;;;;;5.13;4.50;;;;;;;7.65;62.47;95119.16;5056728;28;20428;-66
2020/12/07 10:07:06;;;;;;;8.10;4.87;;;;;;;7.62;62.31;95114.34;5071128;28;20425;-69
2020/12/07 10:09:32;;;;;;;5.27;4.07;;;;;;;7.66;61.75;95120.78;5076097;28;20459;-65
2020/12/07 10:11:58;;;;;;;4.90;3.70;;;;;;;7.44;61.95;95122.53;5040268;28;20207;-69
2020/12/07 10:14:24;;;;;;;5.77;4.67;;;;;;;7.50;62.39;95118.41;5074399;28;20448;-67
2020/12/07 10:16:49;;;;;;;6.60;4.70;;;;;;;7.55;62.30;95121.28;5069557;28;20716;-67
2020/12/07 10:19:15;;;;;;;5.33;4.80;;;;;;;7.75;61.53;95118.88;5072460;28;20202;-67
2020/12/07 10:21:41;;;;;;;7.07;4.57;;;;;;;7.54;62.70;95122.25;5075209;28;20182;-67
2020/12/07 10:24:07;;;;;;;5.30;4.80;;;;;;;7.40;62.70;95118.72;5073353;28;20554;-68
2020/12/07 10:26:33;;;;;;;5.43;4.87;;;;;;;7.07;63.70;95116.50;5073250;28;20570;-67
2020/12/07 10:28:59;;;;;;;5.77;4.80;;;;;;;7.30;63.46;95115.59;5074182;28;20208;-67
2020/12/07 10:31:25;;;;;;;6.73;4.63;;;;;;;7.27;63.14;95121.16;5075173;28;20491;-67
2020/12/07 10:33:52;;;;;;;8.33;4.80;;;;;;;7.30;62.71;95115.59;5072543;28;20868;-68
2020/12/07 10:36:18;;;;;;;5.00;4.50;;;;;;;7.60;61.89;95112.88;5075238;28;20179;-68
2020/12/07 10:38:44;;;;;;;12.07;8.17;;;;;;;7.71;61.80;95122.03;5075215;28;20448;-67
2020/12/07 10:41:11;;;;;;;6.17;4.90;;;;;;;7.77;61.72;95111.69;5075154;28;20435;-67
2020/12/07 10:43:37;;;;;;;5.27;4.70;;;;;;;7.92;61.09;95119.44;5074467;28;20417;-68
2020/12/07 10:46:03;;;;;;;5.47;4.97;;;;;;;7.51;61.19;95118.22;5070041;28;20434;-68
2020/12/07 10:48:29;;;;;;;8.93;6.73;;;;;;;7.48;61.46;95117.81;5067760;28;20806;-68
2020/12/07 10:50:56;;;;;;;5.20;4.70;;;;;;;7.49;61.37;95112.38;5072106;28;20433;-67
2020/12/07 10:53:23;;;;;;;6.23;5.50;;;;;;;7.71;60.76;95112.41;5073955;28;20554;-68
2020/12/07 10:55:50;;;;;;;5.97;5.37;;;;;;;7.75;60.93;95120.69;5074480;28;20575;-67
2020/12/07 10:58:16;;;;;;;5.73;5.13;;;;;;;7.87;60.60;95119.19;5073250;28;20423;-68
2020/12/07 11:00:42;;;;;;;6.87;5.50;;;;;;;7.63;61.45;95125.56;5078730;28;20514;-67
2020/12/07 11:03:07;;;;;;;6.30;5.20;;;;;;;7.60;61.19;95126.75;5078555;28;20440;-67
2020/12/07 11:05:34;;;;;;;6.83;5.03;;;;;;;7.63;61.26;95126.34;5077127;28;20183;-67
2020/12/07 11:08:01;;;;;;;6.57;5.30;;;;;;;7.60;61.53;95134.56;5055788;28;20432;-67
2020/12/07 11:10:26;;;;;;;8.97;5.70;;;;;;;7.34;61.52;95146.31;5073620;28;20955;-67
2020/12/07 11:13:03;;;;;;;8.93;6.10;;;;;;;7.14;62.31;95143.47;5060173;28;20567;-67
2020/12/07 11:15:29;;;;;;;6.30;5.03;;;;;;;7.03;62.33;95146.53;5077473;28;20174;-68
2020/12/07 11:17:55;;;;;;;6.77;5.27;;;;;;;7.13;62.77;95139.22;5079321;28;20425;-68
2020/12/07 11:20:20;;;;;;;5.00;4.50;;;;;;;7.55;61.86;95136.91;5083441;28;20519;-67
2020/12/07 11:22:46;;;;;;;8.27;6.83;;;;;;;7.66;60.35;95131.22;5078667;28;20209;-67
2020/12/07 11:25:12;;;;;;;5.40;4.90;;;;;;;7.72;60.35;95129.66;5078794;28;20199;-68
2020/12/07 11:27:37;;;;;;;6.87;5.53;;;;;;;7.55;60.19;95134.31;5061378;28;20183;-68
2020/12/07 11:30:03;;;;;;;5.70;5.00;;;;;;;7.59;60.59;95134.72;5077938;28;20202;-67
2020/12/07 11:32:29;;;;;;;6.10;5.47;;;;;;;7.55;61.02;95133.50;5071979;28;20195;-68
2020/12/07 11:34:55;;;;;;;10.00;5.60;;;;;;;7.49;60.64;95129.84;5066131;28;20232;-67
2020/12/07 11:37:20;;;;;;;6.83;5.33;;;;;;;7.84;60.39;95130.00;5076429;28;20262;-67
2020/12/07 11:39:55;;;;;;;4.87;4.47;;;;;;;7.53;60.31;95124.06;5076085;28;20575;-67
2020/12/07 11:44:47;;;;;;;5.07;4.57;;;;;;;7.52;59.74;95124.25;5062291;28;20537;-66
2020/12/07 11:47:14;;;;;;;4.83;4.40;;;;;;;7.51;59.94;95126.06;5076978;28;20182;-70
2020/12/07 11:49:41;;;;;;;5.47;4.97;;;;;;;7.44;59.72;95132.19;5069890;28;20230;-68
2020/12/07 11:52:07;;;;;;;4.13;3.73;;;;;;;7.53;59.25;95131.91;5074779;28;20457;-70
2020/12/07 11:54:35;;;;;;;5.13;4.53;;;;;;;7.41;59.81;95133.34;5071176;28;20920;-69
2020/12/07 11:57:04;;;;;;;5.20;4.60;;;;;;;7.48;59.57;95131.63;5052444;28;20429;-69
2020/12/07 11:59:30;;;;;;;4.63;4.07;;;;;;;7.59;59.49;95139.94;5060139;28;20449;-68
2020/12/07 12:01:56;;;;;;;7.63;4.23;;;;;;;7.34;59.72;95133.28;5059962;28;20409;-68
2020/12/07 12:04:22;;;;;;;4.43;4.03;;;;;;;7.28;60.19;95123.56;5076856;28;20209;-68
2020/12/07 12:06:47;;;;;;;4.03;3.63;;;;;;;7.09;60.61;95135.38;5041044;28;20638;-68
2020/12/07 12:09:14;;;;;;;4.17;3.80;;;;;;;7.17;60.75;95124.03;5039850;28;20206;-67
2020/12/07 12:11:41;;;;;;;4.73;3.70;;;;;;;7.42;59.51;95134.97;5078592;28;20490;-69
2020/12/07 12:14:08;;;;;;;3.57;3.27;;;;;;;7.07;58.72;95130.34;5073192;28;20413;-68